createdAt,value
2019-02-06T00:01:25.401Z,34.63
2019-02-06T00:03:56.738Z,37.70
2019-02-06T00:06:28.465Z,37.93
2019-02-06T00:09:00.225Z,37.27
2019-02-06T00:11:34.426Z,36.30
2019-02-06T00:14:11.468Z,34.73
2019-02-06T00:16:42.719Z,32.37
2019-02-06T00:19:13.650Z,36.73
2019-02-06T00:21:44.614Z,37.70
2019-02-06T00:24:15.498Z,40.13
2019-02-06T00:26:46.572Z,36.17
2019-02-06T00:29:17.530Z,39.27
2019-02-06T00:31:48.296Z,43.17
2019-02-06T00:34:19.528Z,36.13
2019-02-06T00:36:50.591Z,41.57
2019-02-06T00:39:21.220Z,38.97
2019-02-06T00:41:51.908Z,37.63
2019-02-06T00:44:22.687Z,38.07
2019-02-06T00:46:53.992Z,32.03
2019-02-06T00:49:24.763Z,33.87
2019-02-06T00:51:55.944Z,36.77
2019-02-06T00:54:27.529Z,30.40
2019-02-06T00:56:58.466Z,35.63
2019-02-06T00:59:29.546Z,33.83
2019-02-06T01:02:00.984Z,32.23
2019-02-06T01:04:32.123Z,34.70
2019-02-06T01:07:03.481Z,33.40
2019-02-06T01:09:34.008Z,38.03
2019-02-06T01:12:04.965Z,33.80
2019-02-06T01:14:36.024Z,32.73
2019-02-06T01:17:07.287Z,37.70
2019-02-06T01:19:38.188Z,33.97
2019-02-06T01:22:09.056Z,36.97
2019-02-06T01:24:39.945Z,35.30
2019-02-06T01:27:11.098Z,32.83
2019-02-06T01:29:41.963Z,33.10
2019-02-06T01:32:13.043Z,34.00
2019-02-06T01:34:44.973Z,33.83
2019-02-06T01:37:15.795Z,35.30
2019-02-06T01:39:46.611Z,34.03
2019-02-06T01:42:17.383Z,34.43
2019-02-06T01:44:48.425Z,34.57
2019-02-06T01:47:19.290Z,34.37
2019-02-06T01:49:49.961Z,33.97
2019-02-06T01:52:20.672Z,33.30
2019-02-06T01:54:51.970Z,33.67
2019-02-06T01:57:23.083Z,32.83
2019-02-06T01:59:54.373Z,31.83
2019-02-06T02:02:25.501Z,30.87
2019-02-06T02:04:56.217Z,26.13
2019-02-06T02:07:27.377Z,30.40
2019-02-06T02:09:58.484Z,27.83
2019-02-06T02:12:29.390Z,26.53
2019-02-06T02:15:00.688Z,26.67
2019-02-06T02:17:31.771Z,25.77
2019-02-06T02:20:02.814Z,27.10
2019-02-06T02:22:34.326Z,24.70
2019-02-06T02:25:06.043Z,26.87
2019-02-06T02:27:36.946Z,23.67
2019-02-06T02:30:09.324Z,24.93
2019-02-06T02:32:41.609Z,24.80
2019-02-06T02:35:12.679Z,26.60
2019-02-06T02:37:43.428Z,24.33
2019-02-06T02:40:14.314Z,26.17
2019-02-06T02:42:45.368Z,24.80
2019-02-06T02:45:18.103Z,25.93
2019-02-06T02:47:49.236Z,25.47
2019-02-06T02:50:20.927Z,25.07
2019-02-06T02:52:52.115Z,26.77
2019-02-06T02:55:23.093Z,24.33
2019-02-06T02:57:54.533Z,26.10
2019-02-06T03:00:34.414Z,26.10
2019-02-06T03:03:28.665Z,25.53
2019-02-06T03:05:59.729Z,27.47
2019-02-06T03:08:30.947Z,24.83
2019-02-06T03:11:02.269Z,25.93
2019-02-06T03:13:34.701Z,23.57
2019-02-06T03:16:05.571Z,25.37
2019-02-06T03:18:36.604Z,23.57
2019-02-06T03:21:07.974Z,28.47
2019-02-06T03:23:38.875Z,28.70
2019-02-06T03:26:10.319Z,28.60
2019-02-06T03:28:41.515Z,27.07
2019-02-06T03:31:12.310Z,26.27
2019-02-06T03:33:44.598Z,24.23
2019-02-06T03:36:15.180Z,26.07
2019-02-06T03:38:46.544Z,23.47
2019-02-06T03:41:17.518Z,24.97
2019-02-06T03:43:48.342Z,28.10
2019-02-06T03:46:19.247Z,24.93
2019-02-06T03:48:50.696Z,24.23
2019-02-06T03:51:21.394Z,23.43
2019-02-06T03:53:52.126Z,23.30
2019-02-06T03:56:22.865Z,24.87
2019-02-06T03:58:53.760Z,24.83
2019-02-06T04:01:25.238Z,23.47
2019-02-06T04:03:56.172Z,22.47
2019-02-06T04:06:27.173Z,25.87
2019-02-06T04:08:57.859Z,25.93
2019-02-06T04:11:28.661Z,22.17
2019-02-06T04:13:59.647Z,23.03
2019-02-06T04:16:30.805Z,24.63
2019-02-06T04:19:01.833Z,23.53
2019-02-06T04:21:32.767Z,21.00
2019-02-06T04:24:03.584Z,25.37
2019-02-06T04:26:34.489Z,20.93
2019-02-06T04:29:07.643Z,22.60
2019-02-06T04:31:38.811Z,22.37
2019-02-06T04:34:10.856Z,21.33
2019-02-06T04:36:41.877Z,20.63
2019-02-06T04:39:12.841Z,22.77
2019-02-06T04:41:44.229Z,21.83
2019-02-06T04:44:15.393Z,20.63
2019-02-06T04:46:46.503Z,21.03
2019-02-06T04:49:18.053Z,22.93
2019-02-06T04:51:49.051Z,22.23
2019-02-06T04:54:21.913Z,24.87
2019-02-06T04:56:52.916Z,24.23
2019-02-06T04:59:24.126Z,23.90
2019-02-06T05:01:55.251Z,23.10
2019-02-06T05:04:26.531Z,24.07
2019-02-06T05:06:57.554Z,24.80
2019-02-06T05:09:28.330Z,24.07
2019-02-06T05:11:59.620Z,24.30
2019-02-06T05:14:30.659Z,26.10
2019-02-06T05:17:03.894Z,25.60
2019-02-06T05:19:34.511Z,26.70
2019-02-06T05:22:05.871Z,24.53
2019-02-06T05:24:36.592Z,28.23
2019-02-06T05:27:07.351Z,25.87
2019-02-06T05:29:38.205Z,24.87
2019-02-06T05:32:09.004Z,27.87
2019-02-06T05:34:42.021Z,24.97
2019-02-06T05:37:12.940Z,28.80
2019-02-06T05:39:44.281Z,25.97
2019-02-06T05:42:15.412Z,28.23
2019-02-06T05:44:46.181Z,28.93
2019-02-06T05:47:17.195Z,28.00
2019-02-06T05:49:48.216Z,24.03
2019-02-06T05:52:19.422Z,24.07
2019-02-06T05:54:50.181Z,23.97
2019-02-06T05:57:21.260Z,28.00
2019-02-06T05:59:52.277Z,30.43
2019-02-06T06:02:23.438Z,26.90
2019-02-06T06:04:55.420Z,24.93
2019-02-06T06:07:26.457Z,28.17
2019-02-06T06:09:58.709Z,28.13
2019-02-06T06:12:29.649Z,28.13
2019-02-06T06:15:01.113Z,27.47
2019-02-06T06:17:34.000Z,28.50
2019-02-06T06:20:05.724Z,25.83
2019-02-06T06:22:37.777Z,30.63
2019-02-06T06:25:09.545Z,30.23
2019-02-06T06:27:40.064Z,28.07
2019-02-06T06:30:14.246Z,26.07
2019-02-06T06:32:44.990Z,25.73
2019-02-06T06:35:15.981Z,24.50
2019-02-06T06:37:57.474Z,24.27
2019-02-06T06:40:21.118Z,24.17
2019-02-06T06:42:52.121Z,24.77
2019-02-06T06:45:23.941Z,26.10
2019-02-06T06:47:55.246Z,23.33
2019-02-06T06:50:26.210Z,25.77
2019-02-06T06:52:57.150Z,27.17
2019-02-06T06:55:29.048Z,29.90
2019-02-06T06:58:00.031Z,26.47
2019-02-06T07:00:32.036Z,25.87
2019-02-06T07:03:02.770Z,26.93
2019-02-06T07:05:35.149Z,27.30
2019-02-06T07:08:10.025Z,25.67
2019-02-06T07:10:39.871Z,28.27
2019-02-06T07:13:11.292Z,25.87
2019-02-06T07:15:42.125Z,26.10
2019-02-06T07:18:13.321Z,26.80
2019-02-06T07:20:44.738Z,26.67
2019-02-06T07:23:15.935Z,26.57
2019-02-06T07:25:46.783Z,28.03
2019-02-06T07:28:17.796Z,27.93
2019-02-06T07:30:48.425Z,27.10
2019-02-06T07:33:19.029Z,29.57
2019-02-06T07:35:49.893Z,25.53
2019-02-06T07:38:24.308Z,29.07
2019-02-06T07:40:53.305Z,26.83
2019-02-06T07:43:23.984Z,31.13
2019-02-06T07:45:54.841Z,25.70
2019-02-06T07:48:25.996Z,24.80
2019-02-06T07:50:56.989Z,26.00
2019-02-06T07:53:28.263Z,26.67
2019-02-06T07:55:59.403Z,26.47
2019-02-06T07:58:30.269Z,30.30
2019-02-06T08:01:01.682Z,27.77
2019-02-06T08:03:32.557Z,26.30
2019-02-06T08:06:03.526Z,28.30
2019-02-06T08:08:36.371Z,27.87
2019-02-06T08:11:06.884Z,27.30
2019-02-06T08:13:37.536Z,29.03
2019-02-06T08:16:08.574Z,27.00
2019-02-06T08:18:39.626Z,27.63
2019-02-06T08:21:10.418Z,26.43
2019-02-06T08:23:40.994Z,29.23
2019-02-06T08:26:12.065Z,25.77
2019-02-06T08:28:43.890Z,29.40
2019-02-06T08:31:14.892Z,27.53
2019-02-06T08:33:46.006Z,30.13
2019-02-06T08:36:17.324Z,27.60
2019-02-06T08:38:49.557Z,27.57
2019-02-06T08:41:20.668Z,28.03
2019-02-06T08:43:51.478Z,26.00
2019-02-06T08:46:22.220Z,28.80
2019-02-06T08:48:53.135Z,28.23
2019-02-06T08:51:24.174Z,28.53
2019-02-06T08:53:55.157Z,30.73
2019-02-06T08:56:26.713Z,28.23
2019-02-06T08:58:57.831Z,30.17
2019-02-06T09:01:28.969Z,31.13
2019-02-06T09:04:00.182Z,30.20
2019-02-06T09:06:31.241Z,30.17
2019-02-06T09:09:02.172Z,30.13
2019-02-06T09:11:34.623Z,30.57
2019-02-06T09:14:06.240Z,27.73
2019-02-06T09:16:36.997Z,32.13
2019-02-06T09:19:07.707Z,30.87
2019-02-06T09:21:38.852Z,31.40
2019-02-06T09:24:10.508Z,28.40
2019-02-06T09:26:41.346Z,28.80
2019-02-06T09:29:12.060Z,29.10
2019-02-06T09:31:44.514Z,28.97
2019-02-06T09:34:15.916Z,28.93
2019-02-06T09:36:47.026Z,30.47
2019-02-06T09:39:17.580Z,29.07
2019-02-06T09:41:48.370Z,26.43
2019-02-06T09:44:19.426Z,26.70
2019-02-06T09:46:50.289Z,27.33
2019-02-06T09:49:21.037Z,26.40
2019-02-06T09:51:51.612Z,26.50
2019-02-06T09:54:23.006Z,23.57
2019-02-06T09:56:53.887Z,23.03
2019-02-06T09:59:24.905Z,23.77
2019-02-06T10:01:56.252Z,23.30
2019-02-06T10:04:26.965Z,21.67
2019-02-06T10:06:58.105Z,21.37
2019-02-06T10:09:28.638Z,20.37
2019-02-06T10:11:59.573Z,21.67
2019-02-06T10:14:30.768Z,21.13
2019-02-06T10:17:01.455Z,18.93
2019-02-06T10:19:32.573Z,17.87
2019-02-06T10:22:03.411Z,18.97
2019-02-06T10:24:34.419Z,18.37
2019-02-06T10:27:05.596Z,16.33
2019-02-06T10:29:36.833Z,14.00
2019-02-06T10:32:07.735Z,14.63
2019-02-06T10:34:38.817Z,15.50
2019-02-06T10:37:09.607Z,15.60
2019-02-06T10:39:40.491Z,14.43
2019-02-06T10:42:11.887Z,14.93
2019-02-06T10:44:42.923Z,17.93
2019-02-06T10:47:13.890Z,17.17
2019-02-06T10:49:45.303Z,13.27
2019-02-06T10:52:16.268Z,14.03
2019-02-06T10:54:47.088Z,14.23
2019-02-06T10:57:18.378Z,12.33
2019-02-06T10:59:49.256Z,14.53
2019-02-06T11:02:20.251Z,13.37
2019-02-06T11:04:51.236Z,13.60
2019-02-06T11:07:22.364Z,12.87
2019-02-06T11:09:53.838Z,13.97
2019-02-06T11:12:25.049Z,13.27
2019-02-06T11:14:58.658Z,11.80
2019-02-06T11:17:29.708Z,13.43
2019-02-06T11:20:01.325Z,10.67
2019-02-06T11:22:34.082Z,9.53
2019-02-06T11:25:06.303Z,8.70
2019-02-06T11:27:37.211Z,8.53
2019-02-06T11:30:11.327Z,8.83
2019-02-06T11:32:42.019Z,7.33
2019-02-06T11:35:13.091Z,9.07
2019-02-06T11:37:44.049Z,9.07
2019-02-06T11:40:17.440Z,9.50
2019-02-06T11:42:48.821Z,9.33
2019-02-06T11:45:23.397Z,10.03
2019-02-06T11:47:54.117Z,7.97
2019-02-06T11:50:31.065Z,7.70
2019-02-06T11:53:02.214Z,8.00
2019-02-06T11:55:32.835Z,8.13
2019-02-06T11:58:04.014Z,9.13
2019-02-06T12:00:53.935Z,8.53
2019-02-06T12:03:25.525Z,9.17
2019-02-06T12:05:57.714Z,8.80
2019-02-06T12:08:31.163Z,8.20
2019-02-06T12:11:01.382Z,8.83
2019-02-06T12:13:32.615Z,7.57
2019-02-06T12:16:03.446Z,8.03
2019-02-06T12:18:36.199Z,8.13
2019-02-06T12:21:07.411Z,9.13
2019-02-06T12:23:38.142Z,8.43
2019-02-06T12:26:09.446Z,8.40
2019-02-06T12:28:40.643Z,8.93
2019-02-06T12:31:12.026Z,9.77
2019-02-06T12:33:43.061Z,8.13
2019-02-06T12:36:15.775Z,7.70
2019-02-06T12:38:53.422Z,8.90
2019-02-06T12:41:19.088Z,7.77
2019-02-06T12:43:49.732Z,7.57
2019-02-06T12:46:20.443Z,7.23
2019-02-06T12:48:51.529Z,6.50
2019-02-06T12:51:22.501Z,7.30
2019-02-06T12:53:56.485Z,7.17
2019-02-06T12:56:27.380Z,6.93
2019-02-06T12:58:58.117Z,7.03
2019-02-06T13:01:28.984Z,6.30
2019-02-06T13:03:59.614Z,6.23
2019-02-06T13:06:33.181Z,5.87
2019-02-06T13:09:05.343Z,6.20
2019-02-06T13:11:36.747Z,6.43
2019-02-06T13:14:08.087Z,6.73
2019-02-06T13:16:38.927Z,5.33
2019-02-06T13:19:10.887Z,6.00
2019-02-06T13:21:43.264Z,6.37
2019-02-06T13:24:13.775Z,6.40
2019-02-06T13:26:44.716Z,5.53
2019-02-06T13:29:15.588Z,4.83
2019-02-06T13:31:46.516Z,5.57
2019-02-06T13:34:17.110Z,6.37
2019-02-06T13:36:56.687Z,6.50
2019-02-06T13:39:28.086Z,6.40
2019-02-06T13:41:59.090Z,7.03
2019-02-06T13:44:29.938Z,7.40
2019-02-06T13:47:01.020Z,6.80
2019-02-06T13:49:32.266Z,5.77
2019-02-06T13:52:03.143Z,6.07
2019-02-06T13:54:34.139Z,6.43
2019-02-06T13:57:05.093Z,5.37
2019-02-06T13:59:35.851Z,6.40
2019-02-06T14:02:07.242Z,7.03
2019-02-06T14:04:38.404Z,7.83
2019-02-06T14:07:09.464Z,5.87
2019-02-06T14:09:40.701Z,6.93
2019-02-06T14:12:13.501Z,6.40
2019-02-06T14:14:44.800Z,7.03
2019-02-06T14:17:18.225Z,6.17
2019-02-06T14:19:48.293Z,6.60
2019-02-06T14:22:19.442Z,7.17
2019-02-06T14:24:58.297Z,6.40
2019-02-06T14:27:53.907Z,6.20
2019-02-06T14:31:12.957Z,5.80
2019-02-06T14:34:21.491Z,6.20
2019-02-06T14:37:27.837Z,6.37
2019-02-06T14:40:13.482Z,7.07
2019-02-06T14:43:21.057Z,7.00
2019-02-06T14:46:30.502Z,5.83
2019-02-06T14:49:43.107Z,6.07
2019-02-06T14:52:53.006Z,5.93
2019-02-06T14:56:05.848Z,6.10
2019-02-06T14:59:03.660Z,5.70
2019-02-06T15:02:18.274Z,5.47
2019-02-06T15:05:32.016Z,6.50
2019-02-06T15:08:24.988Z,6.53
2019-02-06T15:11:29.864Z,4.90
2019-02-06T15:14:33.600Z,5.43
2019-02-06T15:17:41.170Z,5.90
2019-02-06T15:20:19.014Z,5.97
2019-02-06T15:23:38.692Z,6.30
2019-02-06T15:26:49.400Z,6.17
2019-02-06T15:29:53.475Z,6.63
2019-02-06T15:33:04.924Z,6.87
2019-02-06T15:36:00.006Z,5.87
2019-02-06T15:39:00.026Z,6.40
2019-02-06T15:41:58.489Z,9.33
2019-02-06T15:44:45.684Z,8.43
2019-02-06T15:47:53.198Z,8.50
2019-02-06T15:50:47.180Z,9.27
2019-02-06T15:53:58.029Z,9.40
2019-02-06T15:57:15.606Z,7.70
2019-02-06T16:00:22.662Z,7.90
2019-02-06T16:03:52.946Z,8.07
2019-02-06T16:06:46.883Z,7.33
2019-02-06T16:09:50.613Z,10.30
2019-02-06T16:12:53.017Z,13.80
2019-02-06T16:16:23.059Z,15.67
2019-02-06T16:19:46.965Z,12.07
2019-02-06T16:22:47.200Z,9.93
2019-02-06T16:25:46.996Z,13.83
2019-02-06T16:29:01.906Z,11.40
2019-02-06T16:32:04.151Z,14.77
2019-02-06T16:35:22.019Z,16.63
2019-02-06T16:38:47.476Z,14.67
2019-02-06T16:41:53.423Z,12.97
2019-02-06T16:45:00.347Z,14.13
2019-02-06T16:47:52.209Z,16.67
2019-02-06T16:50:58.598Z,17.93
2019-02-06T16:54:07.546Z,51.27
2019-02-06T16:57:18.480Z,48.53
2019-02-06T17:00:31.192Z,18.47
2019-02-06T17:03:50.813Z,16.20
2019-02-06T17:06:56.859Z,19.87
2019-02-06T17:09:42.886Z,28.47
2019-02-06T17:12:44.440Z,26.03
2019-02-06T17:15:50.054Z,26.73
2019-02-06T17:18:45.843Z,23.17
2019-02-06T17:21:52.862Z,27.80
2019-02-06T17:25:23.331Z,25.23
2019-02-06T17:28:21.989Z,29.27
2019-02-06T17:31:38.466Z,25.13
2019-02-06T17:34:40.740Z,25.13
2019-02-06T17:37:51.631Z,27.83
2019-02-06T17:40:48.289Z,27.23
2019-02-06T17:44:04.163Z,26.93
2019-02-06T17:46:50.309Z,25.67
2019-02-06T17:49:54.192Z,24.53
2019-02-06T17:53:11.708Z,27.83
2019-02-06T17:55:43.606Z,29.83
2019-02-06T17:58:15.006Z,28.80
2019-02-06T18:01:04.306Z,29.47
2019-02-06T18:03:41.358Z,34.03
2019-02-06T18:06:24.763Z,30.90
2019-02-06T18:09:02.786Z,26.43
2019-02-06T18:11:55.878Z,28.93
2019-02-06T18:14:47.893Z,31.80
2019-02-06T18:17:45.678Z,29.47
2019-02-06T18:20:44.152Z,30.33
2019-02-06T18:23:35.004Z,30.53
2019-02-06T18:26:13.669Z,36.90
2019-02-06T18:29:05.032Z,37.27
2019-02-06T18:31:42.672Z,39.30
2019-02-06T18:34:34.189Z,36.03
2019-02-06T18:37:04.856Z,37.20
2019-02-06T18:39:35.778Z,37.80
2019-02-06T18:42:07.526Z,38.07
2019-02-06T18:44:39.598Z,38.40
2019-02-06T18:47:10.791Z,36.60
2019-02-06T18:49:41.911Z,35.03
2019-02-06T18:52:20.409Z,37.03
2019-02-06T18:54:46.635Z,37.07
2019-02-06T18:57:17.425Z,37.33
2019-02-06T18:59:50.937Z,34.13
2019-02-06T19:02:21.770Z,36.13
2019-02-06T19:04:53.101Z,36.33
2019-02-06T19:07:24.719Z,37.57
2019-02-06T19:09:56.199Z,39.50
2019-02-06T19:12:27.595Z,37.73
2019-02-06T19:14:58.905Z,39.20
2019-02-06T19:17:30.235Z,38.20
2019-02-06T19:20:01.121Z,37.07
2019-02-06T19:22:32.997Z,38.70
2019-02-06T19:25:04.048Z,38.90
2019-02-06T19:27:34.985Z,38.97
2019-02-06T19:30:09.896Z,36.50
2019-02-06T19:32:40.860Z,36.67
2019-02-06T19:35:12.589Z,41.13
2019-02-06T19:37:43.550Z,38.73
2019-02-06T19:40:14.643Z,39.10
2019-02-06T19:42:45.665Z,37.63
2019-02-06T19:45:16.701Z,35.83
2019-02-06T19:47:48.175Z,32.80
2019-02-06T19:50:22.888Z,30.53
2019-02-06T19:52:54.793Z,31.77
2019-02-06T19:55:25.825Z,33.17
2019-02-06T19:57:56.724Z,32.00
2019-02-06T20:00:29.089Z,31.53
2019-02-06T20:03:02.312Z,30.60
2019-02-06T20:05:33.585Z,32.17
2019-02-06T20:08:05.113Z,32.07
2019-02-06T20:10:39.150Z,32.37
2019-02-06T20:13:12.476Z,30.23
2019-02-06T20:15:42.705Z,30.57
2019-02-06T20:18:14.322Z,34.93
2019-02-06T20:20:45.069Z,34.40
2019-02-06T20:23:16.634Z,35.20
2019-02-06T20:25:47.531Z,37.77
2019-02-06T20:28:18.498Z,36.43
2019-02-06T20:30:49.189Z,37.33
2019-02-06T20:33:20.173Z,34.83
2019-02-06T20:35:51.237Z,36.37
2019-02-06T20:38:22.592Z,38.63
2019-02-06T20:40:54.358Z,37.53
2019-02-06T20:43:25.571Z,36.60
2019-02-06T20:45:56.711Z,36.77
2019-02-06T20:48:27.863Z,38.43
2019-02-06T20:50:58.941Z,35.47
2019-02-06T20:53:30.404Z,35.50
2019-02-06T20:56:01.646Z,37.73
2019-02-06T20:58:33.405Z,35.60
2019-02-06T21:01:04.621Z,37.93
2019-02-06T21:03:35.471Z,37.80
2019-02-06T21:06:06.410Z,36.23
2019-02-06T21:08:37.650Z,40.83
2019-02-06T21:11:08.879Z,44.33
2019-02-06T21:13:39.637Z,41.37
2019-02-06T21:16:10.623Z,43.53
2019-02-06T21:18:41.992Z,42.50
2019-02-06T21:21:13.690Z,42.83
2019-02-06T21:23:45.151Z,41.97
2019-02-06T21:26:16.949Z,37.57
2019-02-06T21:28:48.843Z,44.23
2019-02-06T21:31:20.022Z,43.23
2019-02-06T21:33:51.566Z,45.80
2019-02-06T21:36:22.484Z,44.87
2019-02-06T21:38:53.807Z,39.77
2019-02-06T21:41:25.561Z,44.57
2019-02-06T21:43:56.631Z,43.13
2019-02-06T21:46:28.039Z,46.17
2019-02-06T21:49:00.418Z,38.30
2019-02-06T21:51:31.019Z,41.83
2019-02-06T21:54:02.071Z,36.50
2019-02-06T21:56:33.303Z,40.70
2019-02-06T21:59:04.741Z,44.07
2019-02-06T22:01:37.525Z,43.90
2019-02-06T22:04:08.468Z,39.07
2019-02-06T22:06:40.587Z,34.23
2019-02-06T22:09:12.621Z,34.80
2019-02-06T22:11:43.558Z,36.83
2019-02-06T22:14:14.552Z,35.87
2019-02-06T22:16:45.454Z,34.60
2019-02-06T22:19:16.359Z,33.77
2019-02-06T22:21:46.873Z,30.90
2019-02-06T22:24:17.650Z,37.40
2019-02-06T22:26:48.660Z,36.50
2019-02-06T22:29:21.576Z,33.67
2019-02-06T22:31:52.584Z,37.03
2019-02-06T22:34:23.322Z,36.70
2019-02-06T22:36:54.164Z,36.90
2019-02-06T22:39:25.276Z,35.87
2019-02-06T22:41:56.781Z,37.50
2019-02-06T22:44:27.718Z,40.03
2019-02-06T22:46:58.853Z,41.90
2019-02-06T22:49:29.783Z,35.97
2019-02-06T22:52:00.666Z,41.10
2019-02-06T22:54:31.578Z,44.67
2019-02-06T22:57:03.250Z,43.93
2019-02-06T22:59:34.867Z,43.63
2019-02-06T23:02:07.227Z,41.23
2019-02-06T23:04:38.111Z,44.30
2019-02-06T23:07:09.817Z,43.90
2019-02-06T23:09:40.888Z,46.93
2019-02-06T23:12:11.993Z,46.30
2019-02-06T23:14:42.730Z,51.33
2019-02-06T23:17:13.891Z,50.97
2019-02-06T23:19:44.971Z,50.00
2019-02-06T23:22:15.767Z,50.83
2019-02-06T23:24:47.180Z,57.60
2019-02-06T23:27:18.357Z,46.60
2019-02-06T23:29:49.130Z,57.80
2019-02-06T23:32:19.893Z,53.13
2019-02-06T23:34:50.547Z,58.20
2019-02-06T23:37:21.887Z,55.43
2019-02-06T23:39:52.878Z,57.17
2019-02-06T23:42:24.128Z,57.93
2019-02-06T23:44:54.834Z,49.87
2019-02-06T23:47:25.807Z,58.83
2019-02-06T23:49:57.218Z,63.83
2019-02-06T23:52:28.371Z,63.10
2019-02-06T23:54:59.300Z,55.33
2019-02-06T23:57:30.619Z,52.40
